Terminal Aerodrome Forecast
Issued by NWS

Home | Current Version | Previous Version | Text Only | Print | Product List | Glossary On
Versions: 1 2 3 4 5 6 7 8 9 10 11 12 13 14 15 16
000
FTUS45 KBOI 271537 AAA
TAFJER
TAF AMD
KJER 271537Z 2716/2812 25030G40KT P6SM SKC
      TEMPO 2716/2717 BKN020
     FM280300 24020G30KT P6SM FEW070
     FM280700 23015KT P6SM SCT090=

USA.gov is the U.S. government's official web portal to all federal, state and local government web resources and services.